Terminal Aerodrome Forecast
Issued by NWS

Home | Current Version | Previous Version | Text Only | Print | Product List | Glossary On
Versions: 1 2 3 4 5 6 7 8 9 10 11 12 13 14
000
FTUS43 KIND 040520
TAFHUF
TAF
KHUF 040520Z 0406/0506 00000KT P6SM OVC120
     FM041200 VRB03KT P6SM VCSH OVC050
     FM041800 13005KT 3SM -RA OVC015
     FM042000 11004KT 1 1/2SM -RA OVC008
     FM042200 04004KT 2SM -RA OVC003
     FM050000 VRB03KT P6SM OVC003
     FM050200 VRB03KT P6SM BKN010=

USA.gov is the U.S. government's official web portal to all federal, state and local government web resources and services.